Time;durP1;ratioP1;P1;durP2;ratioP2;P2;SDS_P1;SDS_P2;PMS_P1;PMS_P2;Temp;Humidity;BMP_temperature;BMP_pressure;BME280_temperature;BME280_humidity;BME280_pressure;Samples;Min_cycle;Max_cycle;Signal;HPM_P1;HPM_P2
2023/03/05 00:00:10;;;;;;;6.90;5.80;;;4.00;99.90;;;;;;5002300;28;20187;-80
2023/03/05 00:02:36;;;;;;;14.23;7.20;;;4.00;99.90;;;;;;5001929;28;20227;-80
2023/03/05 00:05:02;;;;;;;8.87;5.30;;;4.00;99.90;;;;;;5001747;28;20204;-80
2023/03/05 00:07:27;;;;;;;7.07;5.90;;;4.00;99.90;;;;;;5019976;28;20207;-80
2023/03/05 00:09:53;;;;;;;6.27;5.50;;;4.00;99.90;;;;;;5002344;28;20179;-80
2023/03/05 00:12:19;;;;;;;7.83;5.30;;;4.00;99.90;;;;;;5002147;28;20215;-81
2023/03/05 00:14:44;;;;;;;8.37;6.50;;;4.00;99.90;;;;;;5001544;28;20200;-81
2023/03/05 00:17:10;;;;;;;10.90;6.67;;;4.00;99.90;;;;;;5001552;28;20636;-81
2023/03/05 00:19:36;;;;;;;13.97;6.73;;;4.00;99.90;;;;;;5001946;28;20164;-81
2023/03/05 00:22:01;;;;;;;10.63;7.37;;;4.00;99.90;;;;;;5001991;28;20207;-81
2023/03/05 00:24:28;;;;;;;16.80;7.30;;;4.00;99.90;;;;;;5019458;28;20555;-81
2023/03/05 00:26:54;;;;;;;11.50;7.27;;;4.00;99.90;;;;;;5001323;28;20699;-81
2023/03/05 00:29:23;;;;;;;8.50;6.70;;;4.00;99.90;;;;;;5019356;28;20168;-81
2023/03/05 00:31:48;;;;;;;9.13;6.53;;;4.00;99.90;;;;;;5001772;28;20179;-83
2023/03/05 00:34:17;;;;;;;11.93;6.10;;;4.00;99.90;;;;;;5003050;28;20299;-83
2023/03/05 00:36:46;;;;;;;6.83;5.90;;;3.90;99.90;;;;;;5021030;28;20176;-83
2023/03/05 00:39:13;;;;;;;12.30;7.30;;;4.00;99.90;;;;;;5003278;28;20274;-84
2023/03/05 00:41:39;;;;;;;6.57;5.97;;;4.00;99.90;;;;;;5003503;28;20183;-83
2023/03/05 00:44:05;;;;;;;9.40;5.97;;;4.00;99.90;;;;;;5003903;28;20203;-81
2023/03/05 00:46:31;;;;;;;7.53;5.93;;;3.90;99.90;;;;;;5003579;28;20208;-84
2023/03/05 00:48:57;;;;;;;5.90;5.37;;;3.90;99.90;;;;;;5002600;28;20180;-84
2023/03/05 00:51:23;;;;;;;11.07;6.00;;;3.90;99.90;;;;;;5003714;28;20218;-84
2023/03/05 00:53:49;;;;;;;12.63;6.43;;;3.90;99.90;;;;;;5003318;28;20664;-84
2023/03/05 00:56:15;;;;;;;8.47;5.30;;;3.90;99.90;;;;;;5003184;28;20234;-84
2023/03/05 00:58:41;;;;;;;11.60;5.57;;;3.90;99.90;;;;;;5002476;28;20192;-84
2023/03/05 01:01:07;;;;;;;11.43;5.63;;;3.90;99.90;;;;;;5001997;28;20668;-83
2023/03/05 01:03:34;;;;;;;8.53;5.90;;;3.80;99.90;;;;;;5019176;28;20200;-83
2023/03/05 01:06:03;;;;;;;8.17;5.33;;;3.80;99.90;;;;;;5002152;28;20199;-83
2023/03/05 01:08:29;;;;;;;14.83;6.87;;;3.80;99.90;;;;;;5020326;28;20180;-83
2023/03/05 01:10:54;;;;;;;11.53;6.83;;;3.80;99.90;;;;;;5020123;28;20231;-83
2023/03/05 01:13:20;;;;;;;9.77;6.70;;;3.80;99.90;;;;;;5003420;28;20564;-83
2023/03/05 01:15:47;;;;;;;10.63;6.83;;;3.80;99.90;;;;;;5002882;28;20661;-82
2023/03/05 01:18:14;;;;;;;13.17;6.97;;;3.80;99.90;;;;;;5002763;28;20184;-82
2023/03/05 01:20:39;;;;;;;7.50;6.80;;;3.80;99.90;;;;;;5003389;28;20184;-82
2023/03/05 01:23:05;;;;;;;18.67;7.93;;;3.80;99.90;;;;;;5003233;28;20219;-82
2023/03/05 01:25:31;;;;;;;11.63;6.80;;;3.80;99.90;;;;;;5006190;28;20207;-82
2023/03/05 01:27:57;;;;;;;13.57;6.87;;;3.80;99.90;;;;;;5027132;28;20191;-83
2023/03/05 01:30:22;;;;;;;10.10;7.03;;;3.70;99.90;;;;;;5005318;28;20196;-83
2023/03/05 01:32:48;;;;;;;13.80;7.63;;;3.70;99.90;;;;;;5004366;28;20231;-83
2023/03/05 01:35:21;;;;;;;16.90;7.20;;;3.70;99.90;;;;;;5004550;28;20215;-83
2023/03/05 01:37:47;;;;;;;12.43;7.20;;;3.60;99.90;;;;;;5005311;28;20183;-83
2023/03/05 01:40:15;;;;;;;12.27;7.03;;;3.50;99.90;;;;;;5006413;28;20547;-84
2023/03/05 01:42:48;;;;;;;15.30;7.10;;;3.50;99.90;;;;;;5022129;28;20263;-84
2023/03/05 01:45:17;;;;;;;12.27;6.90;;;3.40;99.90;;;;;;5004434;28;20207;-84
2023/03/05 01:47:44;;;;;;;11.57;7.13;;;3.30;99.90;;;;;;5007362;28;20247;-84
2023/03/05 01:50:14;;;;;;;15.03;7.53;;;3.30;99.90;;;;;;5012016;28;20180;-84
2023/03/05 01:52:45;;;;;;;14.47;7.63;;;3.30;99.90;;;;;;5012203;28;20175;-84
2023/03/05 01:55:20;;;;;;;12.87;7.70;;;3.30;99.90;;;;;;5003977;28;20191;-84
2023/03/05 01:58:00;;;;;;;14.50;7.47;;;3.30;99.90;;;;;;5003972;28;20175;-84
2023/03/05 02:00:34;;;;;;;11.97;7.53;;;3.30;99.90;;;;;;5003772;28;20290;-84
2023/03/05 02:03:03;;;;;;;14.40;8.27;;;3.30;99.90;;;;;;5003413;28;20215;-84
2023/03/05 02:05:32;;;;;;;14.43;8.63;;;3.30;99.90;;;;;;5003782;28;20218;-84
2023/03/05 02:08:00;;;;;;;13.43;8.60;;;3.30;99.90;;;;;;5002692;28;20529;-84
2023/03/05 02:10:38;;;;;;;12.00;7.90;;;3.30;99.90;;;;;;5002451;28;20203;-84
2023/03/05 02:13:07;;;;;;;18.47;8.17;;;3.30;99.90;;;;;;5002389;28;20210;-80
2023/03/05 02:15:34;;;;;;;19.97;8.43;;;3.30;99.90;;;;;;5018837;28;20195;-80
2023/03/05 02:18:00;;;;;;;12.53;8.47;;;3.30;99.90;;;;;;5000622;28;20187;-80
2023/03/05 02:20:41;;;;;;;11.80;9.03;;;3.30;99.90;;;;;;5000728;28;20183;-80
2023/03/05 02:23:06;;;;;;;13.67;9.00;;;3.30;99.90;;;;;;5000689;28;20214;-83
2023/03/05 02:25:32;;;;;;;11.37;8.40;;;3.30;99.90;;;;;;5000305;28;20204;-84
2023/03/05 02:28:06;;;;;;;19.53;10.13;;;3.20;99.90;;;;;;5001201;28;20644;-84
2023/03/05 02:30:32;;;;;;;18.10;9.20;;;3.20;99.90;;;;;;5001538;28;20651;-84
2023/03/05 02:32:58;;;;;;;15.67;9.37;;;3.20;99.90;;;;;;5001565;28;20192;-85
2023/03/05 02:35:24;;;;;;;16.50;9.60;;;3.10;99.90;;;;;;5003020;28;20221;-84
2023/03/05 02:37:49;;;;;;;12.00;8.47;;;3.10;99.90;;;;;;5002116;28;20636;-83
2023/03/05 02:40:16;;;;;;;21.37;9.53;;;3.10;99.90;;;;;;5002144;28;20182;-83
2023/03/05 02:42:42;;;;;;;19.47;9.50;;;3.10;99.90;;;;;;4999300;28;20191;-82
2023/03/05 02:45:10;;;;;;;17.43;8.73;;;3.10;99.90;;;;;;4998255;28;20674;-83
2023/03/05 02:47:36;;;;;;;19.10;8.70;;;3.10;99.90;;;;;;4998021;28;20645;-82
2023/03/05 02:50:02;;;;;;;20.67;9.10;;;3.10;99.90;;;;;;4999123;28;20364;-84
2023/03/05 02:52:29;;;;;;;23.00;9.83;;;3.10;99.90;;;;;;4998528;28;20187;-84
2023/03/05 02:54:55;;;;;;;18.73;9.47;;;3.10;99.90;;;;;;5016323;28;20307;-84
2023/03/05 02:57:21;;;;;;;15.87;8.80;;;3.10;99.90;;;;;;4999231;28;20607;-84
2023/03/05 02:59:46;;;;;;;11.27;8.13;;;3.10;99.90;;;;;;4999506;28;20234;-83
2023/03/05 03:02:12;;;;;;;18.77;8.53;;;3.10;99.90;;;;;;4999807;28;20218;-83
2023/03/05 03:04:38;;;;;;;14.67;7.90;;;3.10;99.90;;;;;;4998003;28;20196;-83
2023/03/05 03:07:04;;;;;;;17.23;8.90;;;3.00;99.90;;;;;;4998226;28;20267;-83
2023/03/05 03:09:30;;;;;;;13.70;8.50;;;3.00;99.90;;;;;;4998714;28;20184;-83
2023/03/05 03:11:56;;;;;;;11.10;7.30;;;3.10;99.90;;;;;;4998481;28;20550;-83
2023/03/05 03:14:22;;;;;;;15.50;7.87;;;3.00;99.90;;;;;;5003003;28;20250;-83
2023/03/05 03:16:47;;;;;;;15.00;8.20;;;3.10;99.90;;;;;;5004176;28;20559;-83
2023/03/05 03:19:14;;;;;;;12.93;8.30;;;3.10;99.90;;;;;;5004068;28;20181;-83
2023/03/05 03:21:40;;;;;;;19.03;8.73;;;3.10;99.90;;;;;;5004045;28;20184;-83
2023/03/05 03:24:05;;;;;;;13.33;8.30;;;3.00;99.90;;;;;;5004046;28;20298;-82
2023/03/05 03:26:31;;;;;;;12.03;8.57;;;3.10;99.90;;;;;;5003933;28;20291;-83
2023/03/05 03:28:57;;;;;;;18.27;9.37;;;3.10;99.90;;;;;;5004573;28;20203;-83
2023/03/05 03:31:23;;;;;;;15.43;9.53;;;3.10;99.90;;;;;;5004070;28;20649;-83
2023/03/05 03:33:49;;;;;;;16.07;9.70;;;3.10;99.90;;;;;;5004399;28;20196;-83
2023/03/05 03:36:15;;;;;;;14.33;10.13;;;3.10;99.90;;;;;;5004381;28;20187;-83
2023/03/05 03:38:41;;;;;;;15.07;9.37;;;3.10;99.90;;;;;;5004524;28;20180;-83
2023/03/05 03:41:07;;;;;;;19.43;9.83;;;3.10;99.90;;;;;;5004227;28;20176;-83
2023/03/05 03:43:35;;;;;;;17.33;10.30;;;3.10;99.90;;;;;;5004850;28;20203;-83
2023/03/05 03:46:06;;;;;;;18.27;10.20;;;3.10;99.90;;;;;;5004347;28;20196;-83
2023/03/05 03:48:32;;;;;;;15.23;9.73;;;3.10;99.90;;;;;;5005002;28;20176;-84
2023/03/05 03:50:57;;;;;;;16.67;9.80;;;3.00;99.90;;;;;;5005706;28;20184;-85
2023/03/05 03:53:23;;;;;;;20.47;9.50;;;3.00;99.90;;;;;;5023244;28;20191;-85
2023/03/05 03:55:49;;;;;;;23.70;11.00;;;2.90;99.90;;;;;;5005371;28;20184;-85
2023/03/05 03:58:14;;;;;;;17.00;10.27;;;3.00;99.90;;;;;;5005480;28;20176;-85
2023/03/05 04:00:41;;;;;;;12.80;8.40;;;3.00;99.90;;;;;;5005258;28;20671;-83
2023/03/05 04:03:07;;;;;;;14.53;8.50;;;3.00;99.90;;;;;;5004144;28;20206;-82
2023/03/05 04:05:33;;;;;;;14.63;8.83;;;3.00;99.90;;;;;;5004155;28;20209;-82
2023/03/05 04:08:00;;;;;;;14.23;8.50;;;3.00;99.90;;;;;;5004224;28;20605;-82
2023/03/05 04:10:26;;;;;;;21.13;8.97;;;3.00;99.90;;;;;;5004352;28;20242;-82
2023/03/05 04:12:51;;;;;;;13.77;8.47;;;3.00;99.90;;;;;;5005049;28;20196;-84
2023/03/05 04:15:17;;;;;;;9.67;8.37;;;3.00;99.90;;;;;;5006638;28;20184;-84
2023/03/05 04:17:43;;;;;;;20.97;9.10;;;3.00;99.90;;;;;;5006340;28;20194;-84
2023/03/05 04:20:09;;;;;;;14.10;8.73;;;2.90;99.90;;;;;;5005028;28;20267;-82
2023/03/05 04:22:36;;;;;;;14.17;8.07;;;2.90;99.90;;;;;;5003671;28;20200;-82
2023/03/05 04:25:05;;;;;;;16.63;8.30;;;2.90;99.90;;;;;;5002594;28;20195;-81
2023/03/05 04:27:33;;;;;;;16.47;9.50;;;2.90;99.90;;;;;;5003617;28;20238;-83
2023/03/05 04:29:59;;;;;;;18.33;9.70;;;2.90;99.90;;;;;;5003980;28;20180;-83
2023/03/05 04:32:27;;;;;;;12.00;9.07;;;2.90;99.90;;;;;;5004370;28;20610;-82
2023/03/05 04:34:53;;;;;;;17.23;9.97;;;2.90;99.90;;;;;;5003731;28;20554;-83
2023/03/05 04:37:18;;;;;;;15.63;11.07;;;2.90;99.90;;;;;;5004311;28;20183;-83
2023/03/05 04:39:44;;;;;;;16.47;11.07;;;2.90;99.90;;;;;;5004310;28;20699;-82
2023/03/05 04:42:10;;;;;;;16.90;12.30;;;2.90;99.90;;;;;;5003790;28;20187;-82
2023/03/05 04:44:35;;;;;;;23.83;14.20;;;2.90;99.90;;;;;;5003699;28;20263;-82
2023/03/05 04:47:01;;;;;;;27.73;14.07;;;2.80;99.90;;;;;;5003681;28;20261;-82
2023/03/05 04:49:27;;;;;;;21.97;14.70;;;2.80;99.90;;;;;;5004017;28;20266;-82
2023/03/05 04:51:52;;;;;;;25.50;14.47;;;2.80;99.90;;;;;;5003768;28;20586;-83
2023/03/05 04:54:18;;;;;;;20.20;14.70;;;2.80;99.90;;;;;;5008283;28;20203;-83
2023/03/05 04:56:44;;;;;;;20.83;14.33;;;2.80;99.90;;;;;;5024979;28;20184;-82
2023/03/05 04:59:10;;;;;;;21.63;14.60;;;2.80;99.90;;;;;;5004124;28;20187;-82
2023/03/05 05:01:36;;;;;;;20.73;14.07;;;2.80;99.90;;;;;;5004230;28;20191;-82
2023/03/05 05:04:02;;;;;;;26.23;14.00;;;2.80;99.90;;;;;;5021570;28;20200;-83
2023/03/05 05:06:27;;;;;;;30.43;14.87;;;2.80;99.90;;;;;;5003292;28;20605;-85
2023/03/05 05:08:53;;;;;;;19.17;13.37;;;2.80;99.90;;;;;;5003223;28;20176;-85
2023/03/05 05:11:19;;;;;;;25.97;15.20;;;2.80;99.90;;;;;;5002705;28;20279;-86
2023/03/05 05:13:45;;;;;;;22.77;14.67;;;2.80;99.90;;;;;;5004226;28;20321;-85
2023/03/05 05:16:10;;;;;;;22.07;13.90;;;2.80;99.90;;;;;;5004734;28;20264;-85
2023/03/05 05:18:36;;;;;;;25.23;15.17;;;2.90;99.90;;;;;;5004173;28;20183;-84
2023/03/05 05:21:08;;;;;;;25.67;15.17;;;2.90;99.90;;;;;;5020348;28;20172;-83
2023/03/05 05:23:35;;;;;;;22.13;14.53;;;2.90;99.90;;;;;;5002129;28;20230;-84
2023/03/05 05:26:04;;;;;;;22.73;15.57;;;2.90;99.90;;;;;;5003134;28;20661;-82
2023/03/05 05:28:30;;;;;;;19.93;14.77;;;2.90;99.90;;;;;;5002324;28;20267;-83
2023/03/05 05:30:56;;;;;;;21.97;14.47;;;2.80;99.90;;;;;;5018564;28;20199;-83
2023/03/05 05:33:22;;;;;;;23.13;14.57;;;2.80;99.90;;;;;;5003533;28;20539;-83
2023/03/05 05:35:48;;;;;;;20.30;14.37;;;2.80;99.90;;;;;;5000722;28;20203;-86
2023/03/05 05:38:14;;;;;;;25.53;15.87;;;2.80;99.90;;;;;;4999065;28;20577;-86
2023/03/05 05:40:39;;;;;;;22.70;14.20;;;2.80;99.90;;;;;;4998900;28;20295;-86
2023/03/05 05:43:05;;;;;;;28.53;17.83;;;2.90;99.90;;;;;;5016563;28;20329;-86
2023/03/05 05:45:31;;;;;;;36.73;17.73;;;2.90;99.90;;;;;;4998783;28;20672;-86
2023/03/05 05:47:57;;;;;;;26.50;18.37;;;2.80;99.90;;;;;;5000975;28;20187;-85
2023/03/05 05:50:24;;;;;;;31.33;16.97;;;2.80;99.90;;;;;;5002920;28;20183;-85
2023/03/05 05:52:53;;;;;;;26.47;16.20;;;2.70;99.90;;;;;;5005715;28;20211;-81
2023/03/05 05:55:18;;;;;;;26.97;16.27;;;2.70;99.90;;;;;;5010981;28;20186;-81
2023/03/05 05:57:44;;;;;;;28.67;16.40;;;2.70;99.90;;;;;;5028108;28;20196;-81
2023/03/05 06:00:13;;;;;;;25.53;15.60;;;2.70;99.90;;;;;;5021747;28;20194;-81
2023/03/05 06:02:40;;;;;;;27.30;16.40;;;2.70;99.90;;;;;;5020119;28;20217;-84
2023/03/05 06:05:07;;;;;;;31.70;16.33;;;2.70;99.90;;;;;;5002531;28;20180;-84
2023/03/05 06:07:36;;;;;;;27.60;16.90;;;2.70;99.90;;;;;;5003064;28;20184;-85
2023/03/05 06:10:02;;;;;;;28.17;17.13;;;2.70;99.90;;;;;;5003465;28;20275;-84
2023/03/05 06:12:28;;;;;;;27.40;17.03;;;2.70;99.90;;;;;;5006565;28;20180;-84
2023/03/05 06:14:54;;;;;;;28.53;18.50;;;2.70;99.90;;;;;;5013881;28;20186;-84
2023/03/05 06:17:20;;;;;;;33.87;18.53;;;2.70;99.90;;;;;;5011729;28;20180;-84
2023/03/05 06:19:45;;;;;;;32.03;18.67;;;2.60;99.90;;;;;;5017249;28;20558;-84
2023/03/05 06:22:11;;;;;;;30.50;18.07;;;2.70;99.90;;;;;;5018160;28;20200;-84
2023/03/05 06:24:37;;;;;;;32.77;18.93;;;2.70;99.90;;;;;;5000047;28;20258;-84
2023/03/05 06:27:04;;;;;;;34.63;19.30;;;2.70;99.90;;;;;;5000588;28;20597;-84
2023/03/05 06:29:31;;;;;;;36.03;21.80;;;2.70;99.90;;;;;;5018943;28;20172;-84
2023/03/05 06:31:56;;;;;;;37.40;21.23;;;2.80;99.90;;;;;;5001942;28;20180;-84
2023/03/05 06:34:22;;;;;;;45.03;22.27;;;2.80;99.90;;;;;;4998083;28;20699;-84
2023/03/05 06:36:48;;;;;;;34.50;22.13;;;2.80;99.90;;;;;;5015151;28;20176;-84
2023/03/05 06:39:14;;;;;;;40.40;22.83;;;2.70;99.90;;;;;;4998038;28;20602;-84
2023/03/05 06:41:40;;;;;;;41.10;22.50;;;2.80;99.90;;;;;;4997657;28;20223;-84
2023/03/05 06:44:05;;;;;;;41.30;21.43;;;2.80;99.90;;;;;;4997618;28;20203;-84
2023/03/05 06:46:34;;;;;;;43.70;20.57;;;2.80;99.90;;;;;;4998023;28;20207;-84
2023/03/05 06:49:01;;;;;;;45.97;22.73;;;2.80;99.90;;;;;;5001055;28;20180;-84
2023/03/05 06:51:30;;;;;;;41.47;23.73;;;2.80;99.90;;;;;;5001689;28;20184;-84
2023/03/05 06:54:00;;;;;;;46.07;23.63;;;2.80;99.90;;;;;;5002382;28;20206;-84
2023/03/05 06:56:26;;;;;;;42.87;24.03;;;2.80;99.90;;;;;;5002183;28;20635;-85
2023/03/05 06:58:52;;;;;;;42.33;23.03;;;2.80;99.90;;;;;;5002482;28;20188;-84
2023/03/05 07:01:19;;;;;;;44.97;23.23;;;2.80;99.90;;;;;;5002662;28;20731;-84
2023/03/05 07:03:51;;;;;;;46.03;24.30;;;2.80;99.90;;;;;;5019749;28;20207;-84
2023/03/05 07:06:17;;;;;;;38.73;22.70;;;2.80;99.90;;;;;;5019043;28;20187;-84
2023/03/05 07:08:43;;;;;;;38.87;23.97;;;2.90;99.90;;;;;;5002871;28;20580;-84
2023/03/05 07:11:18;;;;;;;44.63;24.47;;;2.90;99.90;;;;;;5002214;28;20267;-84
2023/03/05 07:13:46;;;;;;;48.00;24.00;;;2.90;99.90;;;;;;5001607;28;20203;-85
2023/03/05 07:16:21;;;;;;;47.23;25.43;;;2.90;99.90;;;;;;5001407;28;20648;-84
2023/03/05 07:18:48;;;;;;;40.93;21.90;;;2.90;99.90;;;;;;5001403;28;20183;-84
2023/03/05 07:21:17;;;;;;;34.50;20.33;;;2.80;99.90;;;;;;5018703;28;20183;-83
2023/03/05 07:23:42;;;;;;;31.03;20.43;;;2.60;99.90;;;;;;5001396;28;20692;-83
2023/03/05 07:26:09;;;;;;;32.70;19.90;;;2.60;99.90;;;;;;5001405;28;20204;-83
2023/03/05 07:28:35;;;;;;;35.00;20.33;;;2.50;99.90;;;;;;5019136;28;20175;-83
2023/03/05 07:31:06;;;;;;;38.30;21.77;;;2.50;99.90;;;;;;5001343;28;20176;-83
2023/03/05 07:33:34;;;;;;;45.33;22.37;;;2.50;99.90;;;;;;5001607;28;20688;-83
2023/03/05 07:36:00;;;;;;;36.13;22.97;;;2.50;99.90;;;;;;5001593;28;20188;-83
2023/03/05 07:38:26;;;;;;;35.73;24.97;;;2.40;99.90;;;;;;5019461;28;20182;-83
2023/03/05 07:40:52;;;;;;;51.13;25.63;;;2.50;99.90;;;;;;5019848;28;20204;-83
2023/03/05 07:43:18;;;;;;;49.90;27.00;;;2.40;99.90;;;;;;5002127;28;20208;-83
2023/03/05 07:45:45;;;;;;;50.90;26.90;;;2.40;99.90;;;;;;5001296;28;20208;-83
2023/03/05 07:48:16;;;;;;;53.40;28.40;;;2.40;99.90;;;;;;5001484;28;20266;-82
2023/03/05 07:50:44;;;;;;;46.77;28.10;;;2.50;99.90;;;;;;5001477;28;20179;-82
2023/03/05 07:53:10;;;;;;;46.90;28.37;;;2.50;99.90;;;;;;5019642;28;20200;-82
2023/03/05 07:55:45;;;;;;;53.20;28.53;;;2.50;99.90;;;;;;5001232;28;20180;-82
2023/03/05 07:58:12;;;;;;;52.80;28.83;;;2.50;99.90;;;;;;5002975;28;20261;-82
2023/03/05 08:00:38;;;;;;;47.40;30.20;;;2.50;99.90;;;;;;5001883;28;20175;-83
2023/03/05 08:03:05;;;;;;;52.40;29.30;;;2.50;99.90;;;;;;5019837;28;20318;-83
2023/03/05 08:05:31;;;;;;;53.20;30.70;;;2.50;99.90;;;;;;5001514;28;20200;-83
2023/03/05 08:07:56;;;;;;;58.10;32.03;;;2.40;99.90;;;;;;5000534;28;20194;-81
2023/03/05 08:10:22;;;;;;;50.17;30.73;;;2.50;99.90;;;;;;5001202;28;20621;-81
2023/03/05 08:12:48;;;;;;;50.80;30.63;;;2.40;99.90;;;;;;5000546;28;20756;-82
2023/03/05 08:15:14;;;;;;;48.33;30.23;;;2.50;99.90;;;;;;5001226;28;20164;-82
2023/03/05 08:17:39;;;;;;;49.97;29.77;;;2.60;99.90;;;;;;5000886;28;20259;-82
2023/03/05 08:20:09;;;;;;;55.63;28.83;;;2.70;99.90;;;;;;5000498;28;20180;-81
2023/03/05 08:22:38;;;;;;;62.73;39.70;;;2.80;99.90;;;;;;5000477;28;20569;-80
2023/03/05 08:25:05;;;;;;;57.97;33.17;;;2.70;99.90;;;;;;5000836;28;20231;-81
2023/03/05 08:27:31;;;;;;;59.13;31.83;;;2.80;99.90;;;;;;5000818;28;20318;-81
2023/03/05 08:29:57;;;;;;;56.43;31.30;;;2.80;99.90;;;;;;5000809;28;20195;-83
2023/03/05 08:32:23;;;;;;;51.57;32.63;;;2.80;99.90;;;;;;5006549;28;20176;-83
2023/03/05 08:34:49;;;;;;;58.07;34.27;;;2.80;99.90;;;;;;5007081;28;20290;-83
2023/03/05 08:37:14;;;;;;;49.83;30.27;;;2.70;99.90;;;;;;5006242;28;20222;-83
2023/03/05 08:39:40;;;;;;;53.37;35.27;;;2.70;99.90;;;;;;5003895;28;20230;-83
2023/03/05 08:42:06;;;;;;;62.80;38.63;;;2.80;99.90;;;;;;5001972;28;20179;-83
2023/03/05 08:44:32;;;;;;;59.23;34.87;;;2.80;99.90;;;;;;5002687;28;20267;-83
2023/03/05 08:46:57;;;;;;;52.77;32.57;;;2.80;99.90;;;;;;5004941;28;20297;-83
2023/03/05 08:49:23;;;;;;;40.97;28.40;;;2.90;99.90;;;;;;5007327;28;20178;-83
2023/03/05 08:51:52;;;;;;;49.13;29.33;;;2.90;99.90;;;;;;5008917;28;20205;-83
2023/03/05 08:54:18;;;;;;;43.70;27.03;;;3.10;99.90;;;;;;5007397;28;20298;-83
2023/03/05 08:56:44;;;;;;;41.77;26.97;;;3.10;99.90;;;;;;5007128;28;20227;-84
2023/03/05 08:59:10;;;;;;;40.50;27.23;;;3.20;99.90;;;;;;5009592;28;20283;-84
2023/03/05 09:01:39;;;;;;;37.27;25.57;;;3.30;99.90;;;;;;5007411;28;20187;-84
2023/03/05 09:04:05;;;;;;;40.03;26.33;;;3.20;99.90;;;;;;5002551;28;20204;-82
2023/03/05 09:06:31;;;;;;;43.43;27.20;;;3.20;99.90;;;;;;5003617;28;20206;-81
2023/03/05 09:08:56;;;;;;;45.20;26.83;;;3.20;99.90;;;;;;5002391;28;20176;-81
2023/03/05 09:11:22;;;;;;;38.77;26.63;;;3.40;99.90;;;;;;5019784;28;20206;-82
2023/03/05 09:13:48;;;;;;;35.57;23.90;;;3.50;99.90;;;;;;5019994;28;20195;-82
2023/03/05 09:16:15;;;;;;;36.60;23.80;;;3.60;99.90;;;;;;5001564;28;20605;-82
2023/03/05 09:18:41;;;;;;;41.57;23.23;;;3.60;99.90;;;;;;5001687;28;20242;-82
2023/03/05 09:21:11;;;;;;;34.20;22.97;;;3.60;99.90;;;;;;5019371;28;20184;-82
2023/03/05 09:23:37;;;;;;;37.63;23.80;;;3.60;99.90;;;;;;5002181;28;20222;-82
2023/03/05 09:26:08;;;;;;;36.43;23.67;;;3.60;99.90;;;;;;5000018;28;20199;-82
2023/03/05 09:28:34;;;;;;;32.33;23.27;;;3.60;99.90;;;;;;5000558;28;20172;-82
2023/03/05 09:31:04;;;;;;;34.00;24.03;;;3.60;99.90;;;;;;5001052;28;20180;-82
2023/03/05 09:33:31;;;;;;;27.90;21.17;;;3.50;99.90;;;;;;5000979;28;20200;-82
2023/03/05 09:35:57;;;;;;;35.57;23.20;;;3.50;99.90;;;;;;5017546;28;20176;-82
2023/03/05 09:38:22;;;;;;;34.80;22.87;;;3.50;99.90;;;;;;5000416;28;20183;-81
2023/03/05 09:40:55;;;;;;;37.87;23.50;;;3.50;99.90;;;;;;5000959;28;20187;-81
2023/03/05 09:43:44;;;;;;;34.93;21.70;;;3.60;99.90;;;;;;5016567;28;20274;-81
2023/03/05 09:46:16;;;;;;;34.07;22.63;;;3.80;99.90;;;;;;4970666;28;20215;-81
2023/03/05 09:48:55;;;;;;;34.10;22.83;;;3.80;99.90;;;;;;4998837;28;20191;-81
2023/03/05 09:51:25;;;;;;;36.80;22.33;;;3.80;99.90;;;;;;4998876;28;20238;-81
2023/03/05 09:54:09;;;;;;;30.73;21.80;;;3.70;99.90;;;;;;4998495;28;20196;-81
2023/03/05 09:56:40;;;;;;;32.17;20.53;;;3.70;99.90;;;;;;4998619;28;20183;-81
2023/03/05 09:59:12;;;;;;;23.83;18.93;;;3.70;99.90;;;;;;4998494;28;20160;-81
2023/03/05 10:01:41;;;;;;;28.33;18.80;;;3.70;99.90;;;;;;4998600;28;20204;-81
2023/03/05 10:04:19;;;;;;;26.30;18.17;;;3.70;99.90;;;;;;4998487;28;20582;-81
2023/03/05 10:07:20;;;;;;;25.33;18.50;;;3.60;99.90;;;;;;5006918;28;20202;-81
2023/03/05 10:09:52;;;;;;;27.20;20.00;;;3.70;99.90;;;;;;5006904;28;20653;-81
2023/03/05 10:12:24;;;;;;;23.17;18.87;;;3.60;99.90;;;;;;5003356;28;20168;-81
2023/03/05 10:14:50;;;;;;;31.20;20.90;;;3.60;99.90;;;;;;5001322;28;20219;-81
2023/03/05 10:17:35;;;;;;;30.07;19.43;;;3.60;99.90;;;;;;5001140;28;20180;-81
2023/03/05 10:20:07;;;;;;;26.20;19.10;;;3.60;99.90;;;;;;5001379;28;20172;-81
2023/03/05 10:22:54;;;;;;;24.63;19.43;;;3.60;99.90;;;;;;5000857;28;20196;-81
2023/03/05 10:25:32;;;;;;;27.77;19.63;;;3.60;99.90;;;;;;5001545;28;20227;-80
2023/03/05 10:28:08;;;;;;;28.00;20.80;;;3.70;99.90;;;;;;5018792;28;20171;-80
2023/03/05 10:30:53;;;;;;;30.40;20.87;;;3.60;99.90;;;;;;5001611;28;20167;-80
2023/03/05 10:33:22;;;;;;;26.03;19.90;;;3.70;99.90;;;;;;4998913;28;20195;-79
2023/03/05 10:36:10;;;;;;;29.23;21.07;;;3.70;99.90;;;;;;4998028;28;20179;-79
2023/03/05 10:38:53;;;;;;;25.00;21.07;;;3.60;99.90;;;;;;4998354;28;20263;-79
2023/03/05 10:41:38;;;;;;;27.70;19.60;;;3.50;99.90;;;;;;4998611;28;20186;-86
2023/03/05 10:44:03;;;;;;;27.03;19.33;;;3.50;99.90;;;;;;5000677;28;20203;-82
2023/03/05 10:46:36;;;;;;;23.63;17.07;;;3.40;99.90;;;;;;4999964;28;20191;-80
2023/03/05 10:49:05;;;;;;;23.70;18.60;;;3.30;99.90;;;;;;5018015;28;20167;-80
2023/03/05 10:51:59;;;;;;;27.97;18.43;;;3.10;99.90;;;;;;4999778;28;20182;-80
2023/03/05 10:54:37;;;;;;;26.10;18.07;;;3.10;99.90;;;;;;4990666;28;20211;-80
2023/03/05 10:57:08;;;;;;;23.30;17.80;;;3.20;99.90;;;;;;5001161;28;20518;-80
2023/03/05 10:59:34;;;;;;;28.57;18.87;;;3.30;99.90;;;;;;5000653;28;20180;-79
2023/03/05 11:02:07;;;;;;;29.87;20.00;;;3.30;99.90;;;;;;5001263;28;20175;-79
2023/03/05 11:04:37;;;;;;;30.40;20.50;;;3.40;99.90;;;;;;5018139;28;20632;-79
2023/03/05 11:07:14;;;;;;;25.03;19.10;;;3.40;99.90;;;;;;5000399;28;20230;-79
2023/03/05 11:10:03;;;;;;;26.83;20.00;;;3.50;99.90;;;;;;5018080;28;20683;-79
2023/03/05 11:12:35;;;;;;;19.10;15.27;;;3.60;99.90;;;;;;5000654;28;20538;-79
2023/03/05 11:15:06;;;;;;;18.30;14.63;;;3.60;99.90;;;;;;4999831;28;20225;-80
2023/03/05 11:17:42;;;;;;;19.37;13.47;;;3.50;99.90;;;;;;4999753;28;20196;-80
2023/03/05 11:20:34;;;;;;;14.30;12.43;;;3.40;99.90;;;;;;5000917;28;20172;-79
2023/03/05 11:23:16;;;;;;;14.43;12.13;;;3.40;99.90;;;;;;4990179;28;20341;-86
2023/03/05 11:26:00;;;;;;;14.77;11.73;;;3.40;99.90;;;;;;4999048;28;20196;-81
2023/03/05 11:28:27;;;;;;;17.47;13.03;;;3.40;99.90;;;;;;4998777;28;20175;-79
2023/03/05 11:31:14;;;;;;;17.17;12.60;;;3.40;99.90;;;;;;4999687;28;20179;-83
2023/03/05 11:33:55;;;;;;;19.33;12.87;;;3.50;99.90;;;;;;4991427;28;20307;-84
2023/03/05 11:36:23;;;;;;;16.80;12.23;;;3.50;99.90;;;;;;5005601;28;20255;-84
2023/03/05 11:38:58;;;;;;;17.47;14.50;;;3.60;99.90;;;;;;5002698;28;20564;-83
2023/03/05 11:41:32;;;;;;;16.07;13.80;;;3.70;99.90;;;;;;5018596;28;20168;-78
2023/03/05 11:44:02;;;;;;;18.87;14.83;;;3.80;99.90;;;;;;5001162;28;20199;-79
2023/03/05 11:46:33;;;;;;;17.93;14.13;;;3.90;99.90;;;;;;5001245;28;20201;-79
2023/03/05 11:49:00;;;;;;;18.10;14.77;;;4.00;99.90;;;;;;5018796;28;20156;-79
2023/03/05 11:51:39;;;;;;;17.97;13.77;;;4.10;99.90;;;;;;5001730;28;20613;-78
2023/03/05 11:54:15;;;;;;;22.30;13.07;;;4.10;99.90;;;;;;5020318;28;20188;-79
2023/03/05 11:56:42;;;;;;;17.73;13.10;;;4.10;99.90;;;;;;5003066;28;20207;-78
2023/03/05 11:59:28;;;;;;;17.37;12.07;;;4.10;99.90;;;;;;5002704;28;20652;-78
2023/03/05 12:01:56;;;;;;;16.53;11.13;;;4.20;99.90;;;;;;5001627;28;20175;-78
2023/03/05 12:04:23;;;;;;;14.27;10.10;;;4.20;99.90;;;;;;5002078;28;20204;-79
2023/03/05 12:06:59;;;;;;;14.30;11.07;;;4.20;99.90;;;;;;5001499;28;20221;-79
2023/03/05 12:09:39;;;;;;;13.37;11.10;;;4.30;99.90;;;;;;5001991;28;20179;-78
2023/03/05 12:12:37;;;;;;;13.63;10.70;;;4.30;99.90;;;;;;5019632;28;20152;-79
2023/03/05 12:15:05;;;;;;;14.33;10.50;;;4.20;99.90;;;;;;4977243;28;20219;-79
2023/03/05 12:17:54;;;;;;;10.00;9.00;;;4.10;99.90;;;;;;5002404;28;20230;-79
2023/03/05 12:20:40;;;;;;;13.90;9.83;;;4.20;99.90;;;;;;4991198;28;20645;-78
2023/03/05 12:23:16;;;;;;;12.27;10.23;;;4.20;99.90;;;;;;5007578;28;20282;-78
2023/03/05 12:25:51;;;;;;;14.60;11.33;;;4.20;99.90;;;;;;5017781;28;20196;-78
2023/03/05 12:28:44;;;;;;;14.67;11.07;;;4.30;99.90;;;;;;5019835;28;20215;-80
2023/03/05 12:31:36;;;;;;;11.50;10.13;;;4.50;99.90;;;;;;5000699;28;20238;-79
2023/03/05 12:34:37;;;;;;;13.13;10.67;;;4.80;99.90;;;;;;5000216;28;20237;-79
2023/03/05 12:37:11;;;;;;;13.60;11.43;;;4.90;99.90;;;;;;4982030;28;20192;-79
2023/03/05 12:39:46;;;;;;;11.77;10.13;;;5.00;99.90;;;;;;5000895;28;20550;-79
2023/03/05 12:42:27;;;;;;;11.90;9.33;;;5.00;99.90;;;;;;5000367;28;20176;-79
2023/03/05 12:45:21;;;;;;;12.63;9.63;;;5.20;99.90;;;;;;4999791;28;20208;-79
2023/03/05 12:47:54;;;;;;;11.13;8.53;;;5.20;99.90;;;;;;5017899;28;20291;-79
2023/03/05 12:50:25;;;;;;;10.87;9.73;;;5.30;99.90;;;;;;5000740;28;20240;-79